Flight Track Log - Related Links

Times and Time Zones

All times are in EDT time to prevent confusion due to time zone crossing. See the EJA604 flight status page for this flight to view local times or setup timezone preferences in your user account.

Time Position Orientation Groundspeed Altitude Reporting Facility
EDT Latitude Longitude Course Direction KTS MPH feet Rate Location/Type
Wed 01:18:04 PM 26.7381 -79.9969 20° North 197 227 7,200  Level Miami Center
Wed 01:19:04 PM 26.8064 -80.0219 342° North 229 264 10,100 2,300 Climbing Miami Center
Wed 01:20:04 PM 26.8294 -80.1089 287° West 236 272 11,800 1,600 Climbing Miami Center
Wed 01:21:04 PM 26.8422 -80.1953 279° West 301 346 13,300 1,100 Climbing Miami Center
Wed 01:22:00 PM 27.0083 -80.3907 338° Northwest  Level FlightAware Approximate
Wed 01:22:04 PM 26.8608 -80.2958 282° West 320 368 14,000  Level Miami Center
Wed 01:23:04 PM 26.9425 -80.3658 323° Northwest 328 377 15,600 1,700 Climbing Miami Center
Wed 01:24:04 PM 27.0314 -80.4036 339° North 328 377 17,400 1,750 Climbing Miami Center
Wed 01:25:04 PM 27.1183 -80.4411 339° North 333 383 19,100 1,850 Climbing Miami Center
Wed 01:26:04 PM 27.2050 -80.4789 339° North 333 383 21,100 1,950 Climbing Miami Center
Wed 01:27:04 PM 27.2939 -80.5167 339° North 333 383 23,000 1,950 Climbing Miami Center
Wed 01:28:04 PM 27.3806 -80.5522 340° North 328 377 25,000 1,850 Climbing Miami Center
Wed 01:29:04 PM 27.4675 -80.5878 340° North 328 377 26,700 1,700 Climbing Miami Center
Wed 01:30:04 PM 27.5519 -80.6233 340° North 328 377 28,400 1,650 Climbing Miami Center
Wed 01:31:04 PM 27.6389 -80.6614 339° North 328 377 30,000 1,450 Climbing Miami Center
Wed 01:32:04 PM 27.7256 -80.6969 340° North 328 377 31,300 1,250 Climbing Miami Center
Wed 01:33:04 PM 27.8122 -80.7350 339° North 328 377 32,500 1,200 Climbing Miami Center
Wed 01:34:04 PM 27.9053 -80.7689 342° North 333 383 33,700 1,100 Climbing Miami Center
Wed 01:35:04 PM 27.9878 -80.8044 339° North 333 383 34,700 950 Climbing Miami Center
Wed 01:36:04 PM 28.0764 -80.8431 339° North 333 383 35,600 850 Climbing Miami Center
Wed 01:37:04 PM 28.1669 -80.8814 340° North 333 383 36,400 900 Climbing Miami Center
Wed 01:38:04 PM 28.2558 -80.9175 340° North 333 383 37,400 1,050 Climbing Miami Center
Wed 01:39:04 PM 28.3444 -80.9539 340° North 333 383 38,500 1,000 Climbing Miami Center
Wed 01:40:04 PM 28.4311 -80.9925 339° North 333 383 39,400 900 Climbing Miami Center
Wed 01:41:04 PM 28.5175 -81.0311 339° North 327 376 40,300 800 Climbing Miami Center
Wed 01:42:04 PM 28.5997 -81.0697 338° Northwest 327 376 41,000 506 Climbing Miami Center
Wed 01:42:27 PM 28.6233 -81.0808 338° Northwest 327 376 41,000  Level Jacksonville Center
Wed 01:43:27 PM 28.7117 -81.1197 339° North 348 400 41,000  Level Jacksonville Center
Wed 01:44:27 PM 28.8078 -81.1439 348° North 348 400 41,000  Level Jacksonville Center
Wed 01:45:27 PM 28.9064 -81.1683 348° North 353 406 41,000  Level Jacksonville Center
Wed 01:46:27 PM 29.0069 -81.1928 348° North 359 413 41,000  Level Jacksonville Center
Wed 01:47:27 PM 29.1053 -81.2172 348° North 359 413 41,000  Level Jacksonville Center
Wed 01:48:27 PM 29.2036 -81.2369 350° North 354 407 41,000  Level Jacksonville Center
Wed 01:49:27 PM 29.3019 -81.2614 348° North 354 407 41,000  Level Jacksonville Center
Wed 01:50:27 PM 29.3964 -81.2861 347° North 354 407 41,000  Level Jacksonville Center
Wed 01:51:27 PM 29.4906 -81.3061 350° North 354 407 41,000  Level Jacksonville Center
Wed 01:52:27 PM 29.5889 -81.3306 348° North 354 407 41,000  Level Jacksonville Center
Wed 01:53:27 PM 29.6853 -81.3531 349° North 354 407 41,000  Level Jacksonville Center
Wed 01:54:27 PM 29.7836 -81.3753 349° North 354 407 41,000  Level Jacksonville Center
Wed 01:56:27 PM 29.9783 -81.4250 348° North 354 407 41,000  Level Jacksonville Center
Wed 01:57:27 PM 30.0808 -81.4475 349° North 359 413 41,000  Level Jacksonville Center
Wed 01:58:27 PM 30.1792 -81.4700 349° North 359 413 41,000  Level Jacksonville Center
Wed 01:59:27 PM 30.2819 -81.4950 348° North 359 413 41,000  Level Jacksonville Center
Wed 02:00:27 PM 30.3842 -81.4936 North 359 413 41,000  Level Jacksonville Center
Wed 02:01:27 PM 30.4903 -81.4583 16° North 369 425 41,000  Level Jacksonville Center
Wed 02:02:27 PM 30.5964 -81.4228 16° North 380 437 41,000  Level Jacksonville Center
Wed 02:03:27 PM 30.7044 -81.3872 16° North 385 443 41,000  Level Jacksonville Center
Wed 02:04:27 PM 30.8083 -81.3542 15° North 391 450 41,000  Level Jacksonville Center
Wed 02:05:27 PM 30.9186 -81.3186 15° North 398 458 41,000  Level Jacksonville Center
Wed 02:06:27 PM 31.0247 -81.2828 16° North 398 458 41,000  Level Jacksonville Center
Wed 02:07:27 PM 31.1328 -81.2422 18° North 393 452 41,000  Level Jacksonville Center
Wed 02:08:27 PM 31.2408 -81.2064 16° North 393 452 41,000  Level Jacksonville Center
Wed 02:09:27 PM 31.3528 -81.1531 22° Northeast 393 452 41,000  Level Jacksonville Center
Wed 02:10:27 PM 31.4564 -81.0831 30° Northeast 414 476 41,000  Level Jacksonville Center
Wed 02:11:27 PM 31.5472 -81.0178 31° Northeast 419 482 41,000  Level Jacksonville Center
Wed 02:12:27 PM 31.6547 -80.9400 32° Northeast 419 482 41,000  Level Jacksonville Center
Wed 02:13:27 PM 31.7456 -80.8772 30° Northeast 419 482 41,000  Level Jacksonville Center
Wed 02:14:27 PM 31.8528 -80.7989 32° Northeast 420 483 41,000  Level Jacksonville Center
Wed 02:15:27 PM 31.9517 -80.7281 31° Northeast 420 483 41,000  Level Jacksonville Center
Wed 02:16:27 PM 32.0425 -80.6647 31° Northeast 420 483 41,000  Level Jacksonville Center
Wed 02:17:27 PM 32.1475 -80.5861 32° Northeast 420 483 41,000  Level Jacksonville Center
Wed 02:18:27 PM 32.2467 -80.5172 30° Northeast 415 478 41,000  Level Jacksonville Center
Wed 02:19:27 PM 32.3433 -80.4458 32° Northeast 410 472 41,000  Level Jacksonville Center
Wed 02:20:27 PM 32.4419 -80.3719 32° Northeast 410 472 41,000  Level Jacksonville Center
Wed 02:21:27 PM 32.5389 -80.3028 31° Northeast 410 472 41,000  Level Jacksonville Center
Wed 02:22:27 PM 32.6333 -80.2308 33° Northeast 410 472 41,000  Level Jacksonville Center
Wed 02:23:27 PM 32.7319 -80.1564 32° Northeast 410 472 41,000  Level Jacksonville Center
Wed 02:24:27 PM 32.8306 -80.0842 32° Northeast 410 472 41,000  Level Jacksonville Center
Wed 02:25:27 PM 32.9247 -80.0019 36° Northeast 410 472 41,000  Level Jacksonville Center
Wed 02:26:27 PM 33.0144 -79.9175 38° Northeast 415 478 41,000  Level Jacksonville Center
Wed 02:27:27 PM 33.1064 -79.8300 39° Northeast 415 478 41,000  Level Jacksonville Center
Wed 02:28:27 PM 33.1961 -79.7450 38° Northeast 415 478 41,000  Level Jacksonville Center
Wed 02:29:27 PM 33.2797 -79.6650 39° Northeast 415 478 41,000  Level Jacksonville Center
Wed 02:30:27 PM 33.3672 -79.5775 40° Northeast 415 478 41,000  Level Jacksonville Center
Wed 02:31:27 PM 33.4586 -79.4894 39° Northeast 415 478 41,000  Level Jacksonville Center
Wed 02:32:27 PM 33.5483 -79.4036 39° Northeast 415 478 41,000  Level Jacksonville Center
Wed 02:33:27 PM 33.6375 -79.3153 40° Northeast 415 478 41,000  Level Jacksonville Center
Wed 02:35:31 PM 33.8275 -79.1264 40° Northeast 394 453 41,000  Level Washington Center
Wed 02:36:31 PM 33.9156 -79.0375 40° Northeast 399 459 41,000  Level Washington Center
Wed 02:37:31 PM 34.0078 -78.9486 39° Northeast 410 472 41,000  Level Washington Center
Wed 02:38:32 PM 34.0981 -78.8594 39° Northeast 410 472 41,000  Level Washington Center
Wed 02:39:31 PM 34.1922 -78.7703 38° Northeast 410 472 41,000  Level Washington Center
Wed 02:40:31 PM 34.2781 -78.6808 41° Northeast 410 472 41,000  Level Washington Center
Wed 02:41:31 PM 34.3700 -78.5886 40° Northeast 410 472 41,000  Level Washington Center
Wed 02:42:31 PM 34.4600 -78.4986 39° Northeast 410 472 41,000  Level Washington Center
Wed 02:43:31 PM 34.5478 -78.4033 42° Northeast 410 472 41,000  Level Washington Center
Wed 02:44:31 PM 34.6394 -78.3183 37° Northeast 410 472 41,000  Level Washington Center
Wed 02:45:31 PM 34.7292 -78.2253 40° Northeast 410 472 41,000  Level Washington Center
Wed 02:46:31 PM 34.8017 -78.1517 40° Northeast 410 472 41,000  Level Washington Center
Wed 02:47:31 PM 34.8956 -78.0483 42° Northeast 410 472 41,000  Level Washington Center
Wed 02:48:31 PM 34.9831 -77.9572 40° Northeast 410 472 41,000  Level Washington Center
Wed 02:49:32 PM 35.0725 -77.8658 40° Northeast 410 472 41,000  Level Washington Center
Wed 02:50:31 PM 35.1725 -77.7644 40° Northeast 415 478 41,000  Level Washington Center
Wed 02:51:31 PM 35.2617 -77.6728 40° Northeast 415 478 41,000  Level Washington Center
Wed 02:52:31 PM 35.3489 -77.5808 41° Northeast 410 472 41,000  Level Washington Center
Wed 02:53:31 PM 35.4419 -77.4992 36° Northeast 410 472 41,000  Level Washington Center
Wed 02:54:31 PM 35.5350 -77.4144 37° Northeast 415 478 41,000  Level Washington Center
Wed 02:55:31 PM 35.6281 -77.3322 36° Northeast 415 478 41,000  Level Washington Center
Wed 02:56:31 PM 35.7231 -77.2525 34° Northeast 410 472 41,000  Level Washington Center
Wed 02:57:31 PM 35.8161 -77.1672 37° Northeast 410 472 41,000  Level Washington Center
Wed 02:58:31 PM 35.9069 -77.0844 36° Northeast 410 472 41,000  Level Washington Center
Wed 02:59:31 PM 36.0017 -77.0017 35° Northeast 410 472 41,000  Level Washington Center
Wed 03:00:31 PM 36.0967 -76.9183 35° Northeast 410 472 41,000  Level Washington Center
Wed 03:01:31 PM 36.1914 -76.8350 35° Northeast 410 472 41,000  Level Washington Center
Wed 03:02:31 PM 36.2861 -76.7489 36° Northeast 415 478 41,000  Level Washington Center
Wed 03:03:31 PM 36.3828 -76.6628 36° Northeast 420 483 41,000  Level Washington Center
Wed 03:04:31 PM 36.4794 -76.5761 36° Northeast 420 483 41,000  Level Washington Center
Wed 03:05:31 PM 36.5803 -76.5025 30° Northeast 420 483 41,000  Level Washington Center
Wed 03:06:31 PM 36.6808 -76.4336 29° Northeast 415 478 41,000  Level Washington Center
Wed 03:07:31 PM 36.7775 -76.3647 30° Northeast 410 472 41,000  Level Washington Center
Wed 03:08:31 PM 36.8781 -76.2956 29° Northeast 405 466 41,000  Level Washington Center
Wed 03:09:31 PM 36.9764 -76.2289 28° Northeast 400 460 41,000  Level Washington Center
Wed 03:10:32 PM 37.0789 -76.1567 29° Northeast 400 460 41,000  Level Washington Center
Wed 03:11:31 PM 37.1750 -76.0975 26° Northeast 406 467 41,000  Level Washington Center
Wed 03:12:31 PM 37.2775 -76.0253 29° Northeast 412 474 41,000  Level Washington Center
Wed 03:13:31 PM 37.3800 -75.9525 29° Northeast 417 480 41,000  Level Washington Center
Wed 03:14:31 PM 37.4825 -75.8797 29° Northeast 417 480 41,000  Level Washington Center
Wed 03:15:31 PM 37.5847 -75.8067 30° Northeast 417 480 41,000  Level Washington Center
Wed 03:16:31 PM 37.6892 -75.7336 29° Northeast 417 480 41,000  Level Washington Center
Wed 03:17:31 PM 37.7936 -75.6575 30° Northeast 417 480 41,000  Level Washington Center
Wed 03:18:31 PM 37.8978 -75.5867 28° Northeast 417 480 41,000  Level Washington Center
Wed 03:19:32 PM 38.0022 -75.5100 30° Northeast 422 486 41,000  Level Washington Center
Wed 03:20:31 PM 38.1083 -75.4361 29° Northeast 422 486 41,000  Level Washington Center
Wed 03:21:31 PM 38.2167 -75.3697 26° Northeast 422 486 41,000  Level Washington Center
Wed 03:22:31 PM 38.3228 -75.3058 25° Northeast 422 486 41,000  Level Washington Center
Wed 03:23:31 PM 38.4289 -75.2286 30° Northeast 428 493 41,000  Level Washington Center
Wed 03:24:31 PM 38.5353 -75.1644 25° Northeast 428 493 41,000  Level Washington Center
Wed 03:25:32 PM 38.6433 -75.0947 27° Northeast 428 493 41,000 -133 Level Washington Center
Wed 03:27:00 PM 38.7754 -74.9907 26° Northeast  Level FlightAware Approximate
Wed 03:27:31 PM 38.8508 -74.9306 26° Northeast 438 504 40,600  Level Washington Center
Wed 03:28:32 PM 38.9483 -74.8469 34° Northeast 433 498 38,300 -2,200 Descending Washington Center
Wed 03:29:31 PM 39.0417 -74.7658 34° Northeast 415 478 36,200 -2,067 Descending Washington Center
Wed 03:30:31 PM 39.1308 -74.6925 33° Northeast 400 460 34,200 -2,083 Descending Washington Center
Wed 03:31:32 PM 39.2239 -74.6083 35° Northeast 394 453 32,000 -2,244 Descending Washington Center
Wed 03:32:42 PM 39.3414 -74.5075 34° Northeast 411 473 29,300 -2,279 Descending New York Center
Wed 03:33:41 PM 39.4381 -74.4214 35° Northeast 411 473 27,100 -2,308 Descending New York Center
Wed 03:34:39 PM 39.5408 -74.3297 35° Northeast 416 479 24,800 -1,678 Descending New York Center
Wed 03:35:39 PM 39.6353 -74.2375 37° Northeast 429 494 23,800 -942 Descending New York Center
Wed 03:36:40 PM 39.7322 -74.1369 39° Northeast 434 499 22,900 -893 Descending New York Center
Wed 03:37:40 PM 39.8200 -74.0467 38° Northeast 442 509 22,000 -446 Descending New York Center
Wed 03:38:41 PM 39.9125 -73.9453 40° Northeast 442 509 22,000  Level New York Center
Wed 03:39:39 PM 40.0089 -73.8467 38° Northeast 436 502 22,000 -591 Level New York Center
Wed 03:42:04 PM 40.2231 -73.6058 41° Northeast 426 490 20,000 -1,171 Descending Boston Center
Wed 03:43:04 PM 40.3156 -73.5150 37° Northeast 415 478 18,000 -1,550 Descending Boston Center
Wed 03:44:04 PM 40.4100 -73.4403 31° Northeast 405 466 16,900 -550 Descending Boston Center
Wed 03:45:04 PM 40.5144 -73.4064 14° North 388 447 16,900  Level Boston Center
Wed 03:46:04 PM 40.6231 -73.3697 14° North 388 447 16,900 -324 Level Boston Center
Wed 03:46:55 PM 40.7167 -73.3333 16° North 375 432 16,300 -1,086 Descending New York TRACON
Wed 03:47:49 PM 40.8000 -73.2833 24° Northeast 352 405 15,000 -1,316 Descending New York TRACON
Wed 03:48:49 PM 40.8500 -73.1833 57° Northeast 374 430 13,800 -1,550 Descending New York TRACON
Wed 03:49:49 PM 40.9000 -73.0667 60° Northeast 345 397 11,900 -1,950 Descending New York TRACON
Wed 03:50:49 PM 40.9500 -72.9667 56° Northeast 325 374 9,900 -2,033 Descending New York TRACON
Wed 03:51:50 PM 41.0000 -72.8667 56° Northeast 315 362 7,800 -1,950 Descending New York TRACON
Wed 03:52:49 PM 41.0833 -72.8333 17° North 299 344 6,000 -1,261 Descending New York TRACON
Wed 03:53:49 PM 41.1500 -72.8833 331° Northwest 266 306 5,300 -843 Descending New York TRACON
Wed 03:54:50 PM 41.1667 -72.9833 283° West 251 289 4,300 -619 Descending New York TRACON
Wed 03:55:55 PM 41.1667 -73.0833 270° West 247 284 4,000 -144 Descending New York TRACON
Wed 03:56:55 PM 41.1667 -73.1667 270° West 250 288 4,000  Level New York TRACON
Wed 03:57:50 PM 41.1667 -73.2500 270° West 248 285 4,000 52 Level New York TRACON
Wed 03:58:50 PM 41.1833 -73.3500 283° West 249 287 4,100 -200 Climbing New York TRACON
Wed 03:59:50 PM 41.1833 -73.4333 270° West 247 284 3,600 -550 Descending New York TRACON
Wed 04:00:50 PM 41.1833 -73.5167 270° West 247 284 3,000 -288 Descending New York TRACON
Wed 04:01:55 PM 41.2167 -73.6167 294° West 216 249 3,000 50 Level New York TRACON
Wed 04:02:50 PM 41.2333 -73.6667 294° West 175 201 3,100 -100 Climbing New York TRACON
Wed 04:03:55 PM 41.2333 -73.7333 270° West 179 206 2,800 -480 Descending New York TRACON
Wed 04:04:55 PM 41.2167 -73.8000 252° West 176 203 2,100 -350 Descending New York TRACON
Wed 04:05:55 PM 41.1667 -73.7833 166° South 171 197 2,100 -104 Level New York TRACON
Wed 04:06:50 PM 41.1333 -73.7667 159° South 154 177 1,900 -500 Descending New York TRACON
Wed 04:07:55 PM 41.1000 -73.7333 143° Southeast 128 147 1,100 -738 Descending New York TRACON
Wed 04:09:00 PM 41.0667 -73.7000 171° South  Level FlightAware Approximate
Wed 04:16:00 PM 41.0669 -73.7076 171° South  Level Estimated
Wed 04:17:00 PM 41.0667 -73.7000 171° South  Level FlightAware Approximate

Login

Don't have an account? Register now (free) for customized features, flight alerts, and more!